TimeCST,TemperatureF,Dew PointF,Humidity,Sea Level PressureIn,VisibilityMPH,Wind Direction,Wind SpeedMPH,Gust SpeedMPH,PrecipitationIn,Events,Conditions,WindDirDegrees,DateUTC
12:13 AM,-9.4,-20.2,59,30.40,10.0,WSW,3.5,-,N/A,,Clear,250,2014-03-03 06:13:00
12:33 AM,-11.2,-20.2,64,30.40,10.0,West,3.5,-,N/A,,Clear,270,2014-03-03 06:33:00
12:54 AM,-11.2,-22.0,59,30.41,10.0,WNW,3.5,-,N/A,,Clear,290,2014-03-03 06:54:00
1:13 AM,-11.2,-23.8,54,30.41,10.0,West,4.6,-,N/A,,Clear,280,2014-03-03 07:13:00
1:33 AM,-14.8,-23.8,64,30.42,10.0,West,3.5,-,N/A,,Clear,280,2014-03-03 07:33:00
1:54 AM,-14.8,-23.8,64,30.41,10.0,West,3.5,-,N/A,,Clear,280,2014-03-03 07:54:00
2:13 AM,-16.6,-25.6,64,30.42,10.0,West,4.6,-,N/A,,Clear,280,2014-03-03 08:13:00
2:33 AM,-14.8,-23.8,64,30.41,10.0,WNW,4.6,-,N/A,,Clear,300,2014-03-03 08:33:00
2:54 AM,-13.0,-23.8,59,30.40,10.0,NW,6.9,-,N/A,,Clear,310,2014-03-03 08:54:00
3:13 AM,-13.0,-23.8,59,30.40,10.0,NW,5.8,-,N/A,,Clear,310,2014-03-03 09:13:00
3:33 AM,-13.0,-23.8,59,30.40,10.0,NW,4.6,-,N/A,,Clear,310,2014-03-03 09:33:00
3:54 AM,-13.0,-23.8,59,30.40,10.0,NNW,4.6,-,N/A,,Clear,330,2014-03-03 09:54:00
4:13 AM,-13.0,-23.8,59,30.40,10.0,NW,6.9,-,N/A,,Clear,320,2014-03-03 10:13:00
4:33 AM,-13.0,-23.8,59,30.40,10.0,North,3.5,-,N/A,,Clear,360,2014-03-03 10:33:00
4:54 AM,-14.8,-23.8,64,30.40,10.0,Calm,Calm,-,N/A,,Clear,0,2014-03-03 10:54:00
5:13 AM,-14.8,-23.8,64,30.40,10.0,North,3.5,-,N/A,,Clear,350,2014-03-03 11:13:00
5:33 AM,-14.8,-23.8,64,30.39,10.0,Calm,Calm,-,N/A,,Clear,0,2014-03-03 11:33:00
5:54 AM,-14.8,-23.8,64,30.39,10.0,North,3.5,-,N/A,,Clear,360,2014-03-03 11:54:00
6:13 AM,-16.6,-23.8,70,30.39,10.0,Calm,Calm,-,N/A,,Clear,0,2014-03-03 12:13:00
6:33 AM,-16.6,-23.8,70,30.39,10.0,Calm,Calm,-,N/A,,Clear,0,2014-03-03 12:33:00
6:54 AM,-16.6,-25.6,64,30.38,10.0,Calm,Calm,-,N/A,,Clear,0,2014-03-03 12:54:00
7:13 AM,-14.8,-23.8,64,30.38,10.0,NNW,3.5,-,N/A,,Clear,330,2014-03-03 13:13:00
7:33 AM,-13.0,-23.8,59,30.37,10.0,Calm,Calm,-,N/A,,Clear,0,2014-03-03 13:33:00
7:53 AM,-11.2,-22.0,59,30.37,10.0,Calm,Calm,-,N/A,,Clear,0,2014-03-03 13:53:00
8:13 AM,-7.6,-20.2,54,30.36,10.0,WNW,4.6,-,N/A,,Clear,300,2014-03-03 14:13:00
8:33 AM,-5.8,-18.4,55,30.36,10.0,WNW,3.5,-,N/A,,Clear,290,2014-03-03 14:33:00
8:53 AM,-2.2,-18.4,46,30.36,10.0,NW,4.6,-,N/A,,Clear,310,2014-03-03 14:53:00
9:13 AM,-0.4,-16.6,46,30.35,10.0,West,8.1,-,N/A,,Clear,270,2014-03-03 15:13:00
9:33 AM,1.4,-16.6,43,30.35,10.0,West,8.1,-,N/A,,Clear,260,2014-03-03 15:33:00
9:53 AM,1.4,-16.6,43,30.35,10.0,West,6.9,-,N/A,,Clear,270,2014-03-03 15:53:00
10:13 AM,3.2,-16.6,39,30.34,10.0,West,8.1,-,N/A,,Clear,280,2014-03-03 16:13:00
10:33 AM,3.2,-14.8,43,30.33,10.0,WSW,10.4,-,N/A,,Clear,240,2014-03-03 16:33:00
10:53 AM,5.0,-14.8,40,30.33,10.0,SW,10.4,-,N/A,,Clear,230,2014-03-03 16:53:00
11:13 AM,6.8,-14.8,37,30.33,10.0,SW,8.1,-,N/A,,Clear,230,2014-03-03 17:13:00
11:33 AM,6.8,-14.8,37,30.32,10.0,WSW,8.1,-,N/A,,Clear,240,2014-03-03 17:33:00
11:53 AM,6.8,-11.2,44,30.32,10.0,WSW,10.4,-,N/A,,Clear,240,2014-03-03 17:53:00
12:13 PM,6.8,-13.0,40,30.31,10.0,WSW,9.2,-,N/A,,Clear,250,2014-03-03 18:13:00
12:34 PM,8.6,-13.0,37,30.30,10.0,WSW,9.2,-,N/A,,Clear,240,2014-03-03 18:34:00
12:53 PM,8.6,-11.2,40,30.29,10.0,West,5.8,-,N/A,,Clear,280,2014-03-03 18:53:00
1:13 PM,10.4,-11.2,37,30.29,10.0,WSW,9.2,-,N/A,,Clear,250,2014-03-03 19:13:00
1:33 PM,10.4,-11.2,37,30.28,10.0,West,8.1,-,N/A,,Clear,270,2014-03-03 19:33:00
1:53 PM,10.4,-11.2,37,30.27,10.0,SW,10.4,-,N/A,,Clear,230,2014-03-03 19:53:00
2:13 PM,10.4,-11.2,37,30.26,10.0,West,5.8,-,N/A,,Clear,270,2014-03-03 20:13:00
2:33 PM,10.4,-9.4,41,30.26,10.0,SW,10.4,-,N/A,,Clear,220,2014-03-03 20:33:00
2:53 PM,10.4,-7.6,44,30.25,10.0,SSW,6.9,-,N/A,,Clear,210,2014-03-03 20:53:00
3:13 PM,8.6,-7.6,48,30.25,10.0,South,8.1,-,N/A,,Scattered Clouds,180,2014-03-03 21:13:00
3:34 PM,8.6,-7.6,48,30.24,10.0,SSW,8.1,-,N/A,,Scattered Clouds,200,2014-03-03 21:34:00
3:53 PM,8.6,-7.6,48,30.24,10.0,SSW,9.2,-,N/A,,Mostly Cloudy,210,2014-03-03 21:53:00
4:13 PM,8.6,-7.6,48,30.24,10.0,SSW,9.2,-,N/A,,Overcast,210,2014-03-03 22:13:00
4:34 PM,8.6,-7.6,48,30.24,10.0,SSW,9.2,-,N/A,,Overcast,200,2014-03-03 22:34:00
4:53 PM,8.6,-7.6,48,30.24,10.0,SSW,9.2,-,N/A,,Overcast,200,2014-03-03 22:53:00
5:13 PM,6.8,-2.2,67,30.24,5.0,SSW,9.2,-,N/A,,Haze,210,2014-03-03 23:13:00
5:33 PM,6.8,-0.4,72,30.24,1.5,SSW,10.4,-,N/A,Snow,Light Snow,210,2014-03-03 23:33:00
5:53 PM,6.8,-0.4,72,30.24,1.8,SW,6.9,-,N/A,Snow,Light Snow,220,2014-03-03 23:53:00
6:13 PM,6.8,-0.4,72,30.24,2.5,SW,9.2,-,N/A,Snow,Light Snow,220,2014-03-04 00:13:00
6:33 PM,5.0,-0.4,78,30.23,3.0,SW,8.1,-,N/A,Snow,Light Snow,220,2014-03-04 00:33:00
6:53 PM,5.0,-0.4,78,30.23,2.5,SW,5.8,-,N/A,Snow,Light Snow,220,2014-03-04 00:53:00
7:13 PM,5.0,-0.4,78,30.23,2.5,SW,5.8,-,N/A,Snow,Light Snow,230,2014-03-04 01:13:00
7:33 PM,5.0,-0.4,78,30.23,2.0,SW,5.8,-,N/A,Snow,Light Snow,230,2014-03-04 01:33:00
7:53 PM,5.0,-0.4,78,30.22,2.0,SW,3.5,-,N/A,Snow,Light Snow,230,2014-03-04 01:53:00
8:13 PM,5.0,-0.4,78,30.22,3.0,WSW,4.6,-,N/A,Snow,Light Snow,240,2014-03-04 02:13:00
8:33 PM,5.0,-2.2,72,30.21,4.0,WSW,6.9,-,N/A,Snow,Light Snow,240,2014-03-04 02:33:00
8:53 PM,5.0,-2.2,72,30.21,4.0,WSW,4.6,-,N/A,Snow,Light Snow,240,2014-03-04 02:53:00
9:13 PM,5.0,-0.4,78,30.21,2.5,WSW,4.6,-,N/A,Snow,Light Snow,240,2014-03-04 03:13:00
9:33 PM,5.0,-2.2,72,30.21,2.5,Calm,Calm,-,N/A,Snow,Light Snow,0,2014-03-04 03:33:00
9:53 PM,3.2,-2.2,78,30.21,4.0,SSW,4.6,-,N/A,Snow,Light Snow,210,2014-03-04 03:53:00
10:13 PM,3.2,-2.2,78,30.20,2.0,Calm,Calm,-,N/A,Snow,Light Snow,0,2014-03-04 04:13:00
10:33 PM,3.2,-2.2,78,30.20,1.8,Calm,Calm,-,N/A,Snow,Light Snow,0,2014-03-04 04:33:00
10:53 PM,3.2,-2.2,78,30.20,3.0,Calm,Calm,-,N/A,Snow,Light Snow,0,2014-03-04 04:53:00
11:13 PM,3.2,-2.2,78,30.19,7.0,SSW,3.5,-,N/A,Snow,Light Snow,210,2014-03-04 05:13:00
11:33 PM,3.2,-2.2,78,30.19,7.0,SW,4.6,-,N/A,Snow,Light Snow,220,2014-03-04 05:33:00
11:53 PM,3.2,-2.2,78,30.19,3.0,Calm,Calm,-,N/A,Snow,Light Snow,0,2014-03-04 05:53:00